sensor_id;sensor_type;location;lat;lon;timestamp;temperature;humidity
30148;DHT22;16960;49.404;8.248;2023-04-06T00:00:23;20.30;33.00
30148;DHT22;16960;49.404;8.248;2023-04-06T00:02:50;20.30;33.00
30148;DHT22;16960;49.404;8.248;2023-04-06T00:05:19;20.30;33.00
30148;DHT22;16960;49.404;8.248;2023-04-06T00:07:46;20.30;33.00
30148;DHT22;16960;49.404;8.248;2023-04-06T00:10:13;20.30;33.00
30148;DHT22;16960;49.404;8.248;2023-04-06T00:12:40;20.30;33.00
30148;DHT22;16960;49.404;8.248;2023-04-06T00:15:08;20.30;33.00
30148;DHT22;16960;49.404;8.248;2023-04-06T00:17:35;20.30;33.00
30148;DHT22;16960;49.404;8.248;2023-04-06T00:20:03;20.30;33.00
30148;DHT22;16960;49.404;8.248;2023-04-06T00:22:31;20.30;33.00
30148;DHT22;16960;49.404;8.248;2023-04-06T00:24:58;20.30;33.00
30148;DHT22;16960;49.404;8.248;2023-04-06T00:27:25;20.30;33.10
30148;DHT22;16960;49.404;8.248;2023-04-06T00:29:52;20.30;33.10
30148;DHT22;16960;49.404;8.248;2023-04-06T00:32:19;20.30;33.10
30148;DHT22;16960;49.404;8.248;2023-04-06T00:34:46;20.30;33.10
30148;DHT22;16960;49.404;8.248;2023-04-06T00:37:13;20.30;33.20
30148;DHT22;16960;49.404;8.248;2023-04-06T00:39:42;20.30;33.20
30148;DHT22;16960;49.404;8.248;2023-04-06T00:42:11;20.20;33.10
30148;DHT22;16960;49.404;8.248;2023-04-06T00:44:39;20.20;33.20
30148;DHT22;16960;49.404;8.248;2023-04-06T00:47:06;20.20;33.20
30148;DHT22;16960;49.404;8.248;2023-04-06T00:49:34;20.20;33.20
30148;DHT22;16960;49.404;8.248;2023-04-06T00:52:01;20.20;33.20
30148;DHT22;16960;49.404;8.248;2023-04-06T00:54:29;20.20;33.20
30148;DHT22;16960;49.404;8.248;2023-04-06T00:56:58;20.20;33.20
30148;DHT22;16960;49.404;8.248;2023-04-06T00:59:27;20.20;33.20
30148;DHT22;16960;49.404;8.248;2023-04-06T01:01:55;20.20;33.20
30148;DHT22;16960;49.404;8.248;2023-04-06T01:04:22;20.20;33.20
30148;DHT22;16960;49.404;8.248;2023-04-06T01:06:49;20.20;33.20
30148;DHT22;16960;49.404;8.248;2023-04-06T01:09:16;20.20;33.20
30148;DHT22;16960;49.404;8.248;2023-04-06T01:11:43;20.20;33.20
30148;DHT22;16960;49.404;8.248;2023-04-06T01:14:12;20.20;33.20
30148;DHT22;16960;49.404;8.248;2023-04-06T01:16:39;20.10;33.20
30148;DHT22;16960;49.404;8.248;2023-04-06T01:19:10;20.20;33.20
30148;DHT22;16960;49.404;8.248;2023-04-06T01:21:37;20.20;33.20
30148;DHT22;16960;49.404;8.248;2023-04-06T01:24:07;20.20;33.20
30148;DHT22;16960;49.404;8.248;2023-04-06T01:26:35;20.20;33.20
30148;DHT22;16960;49.404;8.248;2023-04-06T01:29:03;20.20;33.20
30148;DHT22;16960;49.404;8.248;2023-04-06T01:31:30;20.20;33.20
30148;DHT22;16960;49.404;8.248;2023-04-06T01:33:57;20.10;33.20
30148;DHT22;16960;49.404;8.248;2023-04-06T01:36:24;20.10;33.30
30148;DHT22;16960;49.404;8.248;2023-04-06T01:38:51;20.20;33.30
30148;DHT22;16960;49.404;8.248;2023-04-06T01:41:20;20.10;33.30
30148;DHT22;16960;49.404;8.248;2023-04-06T01:43:47;20.10;33.30
30148;DHT22;16960;49.404;8.248;2023-04-06T01:46:15;20.20;33.40
30148;DHT22;16960;49.404;8.248;2023-04-06T01:48:42;20.10;33.40
30148;DHT22;16960;49.404;8.248;2023-04-06T01:51:09;20.10;33.40
30148;DHT22;16960;49.404;8.248;2023-04-06T01:53:36;20.10;33.40
30148;DHT22;16960;49.404;8.248;2023-04-06T01:56:03;20.10;33.40
30148;DHT22;16960;49.404;8.248;2023-04-06T01:58:32;20.20;33.40
30148;DHT22;16960;49.404;8.248;2023-04-06T02:00:59;20.10;33.40
30148;DHT22;16960;49.404;8.248;2023-04-06T02:03:26;20.10;33.40
30148;DHT22;16960;49.404;8.248;2023-04-06T02:05:53;20.10;33.40
30148;DHT22;16960;49.404;8.248;2023-04-06T02:08:20;20.10;33.80
30148;DHT22;16960;49.404;8.248;2023-04-06T02:10:47;20.10;33.40
30148;DHT22;16960;49.404;8.248;2023-04-06T02:13:15;20.10;33.40
30148;DHT22;16960;49.404;8.248;2023-04-06T02:15:43;20.10;33.40
30148;DHT22;16960;49.404;8.248;2023-04-06T02:18:10;20.10;33.40
30148;DHT22;16960;49.404;8.248;2023-04-06T02:20:37;20.10;33.40
30148;DHT22;16960;49.404;8.248;2023-04-06T02:23:04;20.10;33.30
30148;DHT22;16960;49.404;8.248;2023-04-06T02:25:31;20.10;33.40
30148;DHT22;16960;49.404;8.248;2023-04-06T02:27:58;20.10;33.40
30148;DHT22;16960;49.404;8.248;2023-04-06T02:30:25;20.10;33.30
30148;DHT22;16960;49.404;8.248;2023-04-06T02:32:54;20.10;33.30
30148;DHT22;16960;49.404;8.248;2023-04-06T02:35:21;20.00;33.30
30148;DHT22;16960;49.404;8.248;2023-04-06T02:37:48;20.10;33.30
30148;DHT22;16960;49.404;8.248;2023-04-06T02:40:15;20.10;33.30
30148;DHT22;16960;49.404;8.248;2023-04-06T02:42:42;20.10;33.30
30148;DHT22;16960;49.404;8.248;2023-04-06T02:45:09;20.00;33.20
30148;DHT22;16960;49.404;8.248;2023-04-06T02:47:36;20.10;33.30
30148;DHT22;16960;49.404;8.248;2023-04-06T02:50:05;20.00;33.20
30148;DHT22;16960;49.404;8.248;2023-04-06T02:52:32;20.10;33.30
30148;DHT22;16960;49.404;8.248;2023-04-06T02:54:59;20.10;33.30
30148;DHT22;16960;49.404;8.248;2023-04-06T02:57:26;20.00;33.20
30148;DHT22;16960;49.404;8.248;2023-04-06T02:59:53;20.00;33.20
30148;DHT22;16960;49.404;8.248;2023-04-06T03:02:20;20.00;33.30
30148;DHT22;16960;49.404;8.248;2023-04-06T03:04:47;20.00;33.30
30148;DHT22;16960;49.404;8.248;2023-04-06T03:07:16;20.00;33.30
30148;DHT22;16960;49.404;8.248;2023-04-06T03:09:43;20.00;33.30
30148;DHT22;16960;49.404;8.248;2023-04-06T03:12:10;20.00;33.30
30148;DHT22;16960;49.404;8.248;2023-04-06T03:14:37;20.00;33.30
30148;DHT22;16960;49.404;8.248;2023-04-06T03:17:04;20.00;33.30
30148;DHT22;16960;49.404;8.248;2023-04-06T03:19:31;20.10;33.40
30148;DHT22;16960;49.404;8.248;2023-04-06T03:21:58;20.00;33.30
30148;DHT22;16960;49.404;8.248;2023-04-06T03:24:26;20.00;33.40
30148;DHT22;16960;49.404;8.248;2023-04-06T03:26:53;20.00;33.30
30148;DHT22;16960;49.404;8.248;2023-04-06T03:29:20;20.00;33.30
30148;DHT22;16960;49.404;8.248;2023-04-06T03:31:47;20.00;33.30
30148;DHT22;16960;49.404;8.248;2023-04-06T03:34:14;20.00;33.30
30148;DHT22;16960;49.404;8.248;2023-04-06T03:36:41;20.00;33.30
30148;DHT22;16960;49.404;8.248;2023-04-06T03:39:08;20.00;33.40
30148;DHT22;16960;49.404;8.248;2023-04-06T03:41:36;20.00;33.40
30148;DHT22;16960;49.404;8.248;2023-04-06T03:44:04;20.10;33.40
30148;DHT22;16960;49.404;8.248;2023-04-06T03:46:31;20.00;33.40
30148;DHT22;16960;49.404;8.248;2023-04-06T03:48:58;20.00;33.40
30148;DHT22;16960;49.404;8.248;2023-04-06T03:51:26;20.00;33.40
30148;DHT22;16960;49.404;8.248;2023-04-06T03:53:53;20.10;33.40
30148;DHT22;16960;49.404;8.248;2023-04-06T03:56:20;20.00;33.30
30148;DHT22;16960;49.404;8.248;2023-04-06T03:58:49;20.00;33.30
30148;DHT22;16960;49.404;8.248;2023-04-06T04:01:16;20.10;33.40
30148;DHT22;16960;49.404;8.248;2023-04-06T04:03:43;20.10;33.40
30148;DHT22;16960;49.404;8.248;2023-04-06T04:06:10;20.10;33.40
30148;DHT22;16960;49.404;8.248;2023-04-06T04:08:37;20.00;33.30
30148;DHT22;16960;49.404;8.248;2023-04-06T04:11:04;20.00;33.30
30148;DHT22;16960;49.404;8.248;2023-04-06T04:13:31;20.00;33.30
30148;DHT22;16960;49.404;8.248;2023-04-06T04:16:00;20.00;33.30
30148;DHT22;16960;49.404;8.248;2023-04-06T04:18:27;20.10;33.40
30148;DHT22;16960;49.404;8.248;2023-04-06T04:20:54;20.10;33.40
30148;DHT22;16960;49.404;8.248;2023-04-06T04:23:21;20.10;33.40
30148;DHT22;16960;49.404;8.248;2023-04-06T04:25:48;20.10;33.30
30148;DHT22;16960;49.404;8.248;2023-04-06T04:28:16;20.10;33.30
30148;DHT22;16960;49.404;8.248;2023-04-06T04:30:43;20.10;33.30
30148;DHT22;16960;49.404;8.248;2023-04-06T04:33:12;20.20;33.30
30148;DHT22;16960;49.404;8.248;2023-04-06T04:35:39;20.20;33.20
30148;DHT22;16960;49.404;8.248;2023-04-06T04:38:06;20.20;33.20
30148;DHT22;16960;49.404;8.248;2023-04-06T04:40:33;20.20;33.20
30148;DHT22;16960;49.404;8.248;2023-04-06T04:43:00;20.20;33.20
30148;DHT22;16960;49.404;8.248;2023-04-06T04:45:27;20.30;33.20
30148;DHT22;16960;49.404;8.248;2023-04-06T04:47:54;20.30;33.20
30148;DHT22;16960;49.404;8.248;2023-04-06T04:50:22;20.30;33.20
30148;DHT22;16960;49.404;8.248;2023-04-06T04:52:49;20.30;33.20
30148;DHT22;16960;49.404;8.248;2023-04-06T04:55:16;20.30;33.20
30148;DHT22;16960;49.404;8.248;2023-04-06T04:57:44;20.30;33.20
30148;DHT22;16960;49.404;8.248;2023-04-06T05:00:12;20.30;33.20
30148;DHT22;16960;49.404;8.248;2023-04-06T05:02:39;20.30;33.20
30148;DHT22;16960;49.404;8.248;2023-04-06T05:05:07;20.30;33.20
30148;DHT22;16960;49.404;8.248;2023-04-06T05:07:35;20.30;33.80
30148;DHT22;16960;49.404;8.248;2023-04-06T05:10:02;20.30;33.20
30148;DHT22;16960;49.404;8.248;2023-04-06T05:12:30;20.30;33.20
30148;DHT22;16960;49.404;8.248;2023-04-06T05:14:57;20.20;33.20
30148;DHT22;16960;49.404;8.248;2023-04-06T05:17:24;20.20;33.10
30148;DHT22;16960;49.404;8.248;2023-04-06T05:19:51;20.20;33.20
30148;DHT22;16960;49.404;8.248;2023-04-06T05:22:18;20.20;33.10
30148;DHT22;16960;49.404;8.248;2023-04-06T05:24:46;20.30;33.20
30148;DHT22;16960;49.404;8.248;2023-04-06T05:27:14;20.20;33.10
30148;DHT22;16960;49.404;8.248;2023-04-06T05:29:41;20.20;33.10
30148;DHT22;16960;49.404;8.248;2023-04-06T05:32:08;20.30;33.20
30148;DHT22;16960;49.404;8.248;2023-04-06T05:34:36;20.30;33.20
30148;DHT22;16960;49.404;8.248;2023-04-06T05:37:03;20.30;33.20
30148;DHT22;16960;49.404;8.248;2023-04-06T05:39:30;20.30;33.20
30148;DHT22;16960;49.404;8.248;2023-04-06T05:42:01;20.30;33.20
30148;DHT22;16960;49.404;8.248;2023-04-06T05:44:28;20.30;33.20
30148;DHT22;16960;49.404;8.248;2023-04-06T05:46:55;20.30;33.20
30148;DHT22;16960;49.404;8.248;2023-04-06T05:49:22;20.30;33.80
30148;DHT22;16960;49.404;8.248;2023-04-06T05:51:49;20.30;33.30
30148;DHT22;16960;49.404;8.248;2023-04-06T05:54:16;20.30;33.30
30148;DHT22;16960;49.404;8.248;2023-04-06T05:56:43;20.30;33.20
30148;DHT22;16960;49.404;8.248;2023-04-06T05:59:11;20.30;33.20
30148;DHT22;16960;49.404;8.248;2023-04-06T06:01:38;20.30;33.20
30148;DHT22;16960;49.404;8.248;2023-04-06T06:04:05;20.30;33.20
30148;DHT22;16960;49.404;8.248;2023-04-06T06:06:32;20.30;33.20
30148;DHT22;16960;49.404;8.248;2023-04-06T06:08:59;20.30;33.20
30148;DHT22;16960;49.404;8.248;2023-04-06T06:11:29;20.30;33.20
30148;DHT22;16960;49.404;8.248;2023-04-06T06:13:56;20.30;33.20
30148;DHT22;16960;49.404;8.248;2023-04-06T06:16:24;20.30;33.20
30148;DHT22;16960;49.404;8.248;2023-04-06T06:18:51;20.30;33.20
30148;DHT22;16960;49.404;8.248;2023-04-06T06:21:18;20.30;33.30
30148;DHT22;16960;49.404;8.248;2023-04-06T06:23:45;20.30;33.30
30148;DHT22;16960;49.404;8.248;2023-04-06T06:26:13;20.30;33.30
30148;DHT22;16960;49.404;8.248;2023-04-06T06:28:40;20.30;33.30
30148;DHT22;16960;49.404;8.248;2023-04-06T06:31:07;20.30;33.20
30148;DHT22;16960;49.404;8.248;2023-04-06T06:33:36;20.30;33.20
30148;DHT22;16960;49.404;8.248;2023-04-06T06:36:03;20.30;33.20
30148;DHT22;16960;49.404;8.248;2023-04-06T06:38:30;20.30;33.10
30148;DHT22;16960;49.404;8.248;2023-04-06T06:40:57;20.30;33.10
30148;DHT22;16960;49.404;8.248;2023-04-06T06:43:24;20.30;33.00
30148;DHT22;16960;49.404;8.248;2023-04-06T06:45:51;20.30;33.00
30148;DHT22;16960;49.404;8.248;2023-04-06T06:48:18;20.40;32.90
30148;DHT22;16960;49.404;8.248;2023-04-06T06:50:48;20.40;32.70
30148;DHT22;16960;49.404;8.248;2023-04-06T06:53:15;20.40;32.60
30148;DHT22;16960;49.404;8.248;2023-04-06T06:55:42;20.40;32.50
30148;DHT22;16960;49.404;8.248;2023-04-06T06:58:10;20.40;32.40
30148;DHT22;16960;49.404;8.248;2023-04-06T07:00:38;20.40;32.20
30148;DHT22;16960;49.404;8.248;2023-04-06T07:03:05;20.30;32.00
30148;DHT22;16960;49.404;8.248;2023-04-06T07:05:32;20.40;31.90
30148;DHT22;16960;49.404;8.248;2023-04-06T07:08:00;20.40;31.90
30148;DHT22;16960;49.404;8.248;2023-04-06T07:10:27;20.40;31.80
30148;DHT22;16960;49.404;8.248;2023-04-06T07:12:54;20.30;31.70
30148;DHT22;16960;49.404;8.248;2023-04-06T07:15:21;20.30;31.70
30148;DHT22;16960;49.404;8.248;2023-04-06T07:17:48;20.30;31.60
30148;DHT22;16960;49.404;8.248;2023-04-06T07:20:16;20.30;31.60
30148;DHT22;16960;49.404;8.248;2023-04-06T07:22:43;20.30;31.40
30148;DHT22;16960;49.404;8.248;2023-04-06T07:25:12;20.30;31.30
30148;DHT22;16960;49.404;8.248;2023-04-06T07:27:39;20.30;31.20
30148;DHT22;16960;49.404;8.248;2023-04-06T07:30:07;20.30;31.60
30148;DHT22;16960;49.404;8.248;2023-04-06T07:32:34;20.40;31.70
30148;DHT22;16960;49.404;8.248;2023-04-06T07:35:01;20.40;31.40
30148;DHT22;16960;49.404;8.248;2023-04-06T07:37:28;20.40;31.30
30148;DHT22;16960;49.404;8.248;2023-04-06T07:39:55;20.40;31.10
30148;DHT22;16960;49.404;8.248;2023-04-06T07:42:24;20.30;31.00
30148;DHT22;16960;49.404;8.248;2023-04-06T07:44:51;20.30;31.00
30148;DHT22;16960;49.404;8.248;2023-04-06T07:47:18;20.30;30.90
30148;DHT22;16960;49.404;8.248;2023-04-06T07:49:45;20.30;30.90
30148;DHT22;16960;49.404;8.248;2023-04-06T07:52:12;20.30;30.90
30148;DHT22;16960;49.404;8.248;2023-04-06T07:54:40;20.30;31.20
30148;DHT22;16960;49.404;8.248;2023-04-06T07:57:07;20.30;30.70
30148;DHT22;16960;49.404;8.248;2023-04-06T07:59:36;20.30;30.80
30148;DHT22;16960;49.404;8.248;2023-04-06T08:02:03;20.30;30.70
30148;DHT22;16960;49.404;8.248;2023-04-06T08:04:30;20.30;30.70
30148;DHT22;16960;49.404;8.248;2023-04-06T08:06:57;20.20;30.60
30148;DHT22;16960;49.404;8.248;2023-04-06T08:09:24;20.20;30.60
30148;DHT22;16960;49.404;8.248;2023-04-06T08:11:51;20.20;30.50
30148;DHT22;16960;49.404;8.248;2023-04-06T08:14:18;20.20;30.60
30148;DHT22;16960;49.404;8.248;2023-04-06T08:16:46;20.20;30.50
30148;DHT22;16960;49.404;8.248;2023-04-06T08:19:13;20.20;30.50
30148;DHT22;16960;49.404;8.248;2023-04-06T08:21:42;20.20;30.50
30148;DHT22;16960;49.404;8.248;2023-04-06T08:24:09;20.10;30.50
30148;DHT22;16960;49.404;8.248;2023-04-06T08:26:36;20.20;30.40
30148;DHT22;16960;49.404;8.248;2023-04-06T08:29:03;20.10;30.50
30148;DHT22;16960;49.404;8.248;2023-04-06T08:31:33;20.10;30.60
30148;DHT22;16960;49.404;8.248;2023-04-06T08:34:03;20.20;31.20
30148;DHT22;16960;49.404;8.248;2023-04-06T08:36:30;20.20;31.60
30148;DHT22;16960;49.404;8.248;2023-04-06T08:38:58;20.20;31.30
30148;DHT22;16960;49.404;8.248;2023-04-06T08:41:27;20.30;31.30
30148;DHT22;16960;49.404;8.248;2023-04-06T08:43:57;20.30;31.20
30148;DHT22;16960;49.404;8.248;2023-04-06T08:46:24;20.30;31.30
30148;DHT22;16960;49.404;8.248;2023-04-06T08:48:55;20.30;31.20
30148;DHT22;16960;49.404;8.248;2023-04-06T08:51:24;20.40;31.30
30148;DHT22;16960;49.404;8.248;2023-04-06T08:53:52;20.40;31.70
30148;DHT22;16960;49.404;8.248;2023-04-06T08:56:21;20.40;31.10
30148;DHT22;16960;49.404;8.248;2023-04-06T08:58:49;20.40;30.90
30148;DHT22;16960;49.404;8.248;2023-04-06T09:01:20;20.50;30.90
30148;DHT22;16960;49.404;8.248;2023-04-06T09:03:49;20.50;30.90
30148;DHT22;16960;49.404;8.248;2023-04-06T09:06:16;20.50;31.50
30148;DHT22;16960;49.404;8.248;2023-04-06T09:08:44;20.50;31.00
30148;DHT22;16960;49.404;8.248;2023-04-06T09:11:11;20.50;30.70
30148;DHT22;16960;49.404;8.248;2023-04-06T09:13:46;20.50;30.60
30148;DHT22;16960;49.404;8.248;2023-04-06T09:16:13;20.60;30.60
30148;DHT22;16960;49.404;8.248;2023-04-06T09:18:41;20.60;30.50
30148;DHT22;16960;49.404;8.248;2023-04-06T09:21:09;20.60;30.70
30148;DHT22;16960;49.404;8.248;2023-04-06T09:23:36;20.60;30.40
30148;DHT22;16960;49.404;8.248;2023-04-06T09:26:09;20.60;30.20
30148;DHT22;16960;49.404;8.248;2023-04-06T09:28:44;20.70;30.30
30148;DHT22;16960;49.404;8.248;2023-04-06T09:31:12;20.70;30.10
30148;DHT22;16960;49.404;8.248;2023-04-06T09:33:42;20.60;29.90
30148;DHT22;16960;49.404;8.248;2023-04-06T09:36:09;20.70;29.80
30148;DHT22;16960;49.404;8.248;2023-04-06T09:38:37;20.70;29.80
30148;DHT22;16960;49.404;8.248;2023-04-06T09:41:04;20.70;29.80
30148;DHT22;16960;49.404;8.248;2023-04-06T09:43:33;20.70;29.60
30148;DHT22;16960;49.404;8.248;2023-04-06T09:46:00;20.70;29.40
30148;DHT22;16960;49.404;8.248;2023-04-06T09:48:31;20.70;29.30
30148;DHT22;16960;49.404;8.248;2023-04-06T09:51:03;20.70;29.20
30148;DHT22;16960;49.404;8.248;2023-04-06T09:53:33;20.70;29.20
30148;DHT22;16960;49.404;8.248;2023-04-06T09:56:03;20.80;29.00
30148;DHT22;16960;49.404;8.248;2023-04-06T09:58:36;20.80;28.80
30148;DHT22;16960;49.404;8.248;2023-04-06T10:01:10;20.80;28.60
30148;DHT22;16960;49.404;8.248;2023-04-06T10:03:45;20.80;28.50
30148;DHT22;16960;49.404;8.248;2023-04-06T10:06:20;20.80;28.30
30148;DHT22;16960;49.404;8.248;2023-04-06T10:08:49;20.90;28.40
30148;DHT22;16960;49.404;8.248;2023-04-06T10:11:17;20.90;28.40
30148;DHT22;16960;49.404;8.248;2023-04-06T10:13:47;20.90;28.30
30148;DHT22;16960;49.404;8.248;2023-04-06T10:16:15;21.00;27.90
30148;DHT22;16960;49.404;8.248;2023-04-06T10:18:46;21.00;27.70
30148;DHT22;16960;49.404;8.248;2023-04-06T10:21:16;21.10;27.40
30148;DHT22;16960;49.404;8.248;2023-04-06T10:23:48;21.10;27.00
30148;DHT22;16960;49.404;8.248;2023-04-06T10:26:17;21.20;27.20
30148;DHT22;16960;49.404;8.248;2023-04-06T10:28:48;21.30;27.10
30148;DHT22;16960;49.404;8.248;2023-04-06T10:31:24;21.40;26.80
30148;DHT22;16960;49.404;8.248;2023-04-06T10:33:55;21.40;26.80
30148;DHT22;16960;49.404;8.248;2023-04-06T10:36:24;21.50;26.70
30148;DHT22;16960;49.404;8.248;2023-04-06T10:38:55;21.50;26.40
30148;DHT22;16960;49.404;8.248;2023-04-06T10:41:22;21.60;26.30
30148;DHT22;16960;49.404;8.248;2023-04-06T10:43:56;21.70;26.20
30148;DHT22;16960;49.404;8.248;2023-04-06T10:46:28;21.70;26.10
30148;DHT22;16960;49.404;8.248;2023-04-06T10:48:56;21.70;26.00
30148;DHT22;16960;49.404;8.248;2023-04-06T10:51:26;21.80;25.90
30148;DHT22;16960;49.404;8.248;2023-04-06T10:53:54;21.80;25.70
30148;DHT22;16960;49.404;8.248;2023-04-06T10:56:22;21.80;25.60
30148;DHT22;16960;49.404;8.248;2023-04-06T10:58:52;21.90;26.00
30148;DHT22;16960;49.404;8.248;2023-04-06T11:01:23;21.90;25.90
30148;DHT22;16960;49.404;8.248;2023-04-06T11:03:53;21.90;25.40
30148;DHT22;16960;49.404;8.248;2023-04-06T11:06:22;21.90;25.10
30148;DHT22;16960;49.404;8.248;2023-04-06T11:08:49;21.80;25.40
30148;DHT22;16960;49.404;8.248;2023-04-06T11:11:18;21.80;25.50
30148;DHT22;16960;49.404;8.248;2023-04-06T11:13:48;21.70;25.30
30148;DHT22;16960;49.404;8.248;2023-04-06T11:16:16;21.60;25.40
30148;DHT22;16960;49.404;8.248;2023-04-06T11:18:52;21.60;25.10
30148;DHT22;16960;49.404;8.248;2023-04-06T11:21:30;21.50;25.10
30148;DHT22;16960;49.404;8.248;2023-04-06T11:24:05;21.50;24.60
30148;DHT22;16960;49.404;8.248;2023-04-06T11:26:37;21.50;24.80
30148;DHT22;16960;49.404;8.248;2023-04-06T11:29:04;21.50;24.60
30148;DHT22;16960;49.404;8.248;2023-04-06T11:31:31;21.50;24.70
30148;DHT22;16960;49.404;8.248;2023-04-06T11:33:59;21.40;24.50
30148;DHT22;16960;49.404;8.248;2023-04-06T11:36:28;21.40;24.50
30148;DHT22;16960;49.404;8.248;2023-04-06T11:38:56;21.40;24.70
30148;DHT22;16960;49.404;8.248;2023-04-06T11:41:23;21.40;24.50
30148;DHT22;16960;49.404;8.248;2023-04-06T11:43:55;21.40;24.40
30148;DHT22;16960;49.404;8.248;2023-04-06T11:46:22;21.40;24.50
30148;DHT22;16960;49.404;8.248;2023-04-06T11:48:49;21.40;24.40
30148;DHT22;16960;49.404;8.248;2023-04-06T11:51:23;21.40;24.50
30148;DHT22;16960;49.404;8.248;2023-04-06T11:53:50;21.30;24.50
30148;DHT22;16960;49.404;8.248;2023-04-06T11:56:23;21.30;24.50
30148;DHT22;16960;49.404;8.248;2023-04-06T11:58:51;21.30;24.70
30148;DHT22;16960;49.404;8.248;2023-04-06T12:01:18;21.30;24.70
30148;DHT22;16960;49.404;8.248;2023-04-06T12:03:45;21.40;24.70
30148;DHT22;16960;49.404;8.248;2023-04-06T12:06:12;21.40;24.80
30148;DHT22;16960;49.404;8.248;2023-04-06T12:08:41;21.40;24.70
30148;DHT22;16960;49.404;8.248;2023-04-06T12:11:08;21.40;24.70
30148;DHT22;16960;49.404;8.248;2023-04-06T12:13:35;21.40;24.50
30148;DHT22;16960;49.404;8.248;2023-04-06T12:16:02;21.40;24.50
30148;DHT22;16960;49.404;8.248;2023-04-06T12:18:30;21.40;24.70
30148;DHT22;16960;49.404;8.248;2023-04-06T12:20:57;21.40;25.00
30148;DHT22;16960;49.404;8.248;2023-04-06T12:23:24;21.40;25.10
30148;DHT22;16960;49.404;8.248;2023-04-06T12:25:52;21.30;25.60
30148;DHT22;16960;49.404;8.248;2023-04-06T12:28:20;21.30;25.90
30148;DHT22;16960;49.404;8.248;2023-04-06T12:30:48;21.30;26.10
30148;DHT22;16960;49.404;8.248;2023-04-06T12:33:16;21.30;26.40
30148;DHT22;16960;49.404;8.248;2023-04-06T12:35:43;21.30;26.60
30148;DHT22;16960;49.404;8.248;2023-04-06T12:38:10;21.30;26.70
30148;DHT22;16960;49.404;8.248;2023-04-06T12:40:38;21.30;26.70
30148;DHT22;16960;49.404;8.248;2023-04-06T12:43:06;21.30;26.80
30148;DHT22;16960;49.404;8.248;2023-04-06T12:45:34;21.30;26.90
30148;DHT22;16960;49.404;8.248;2023-04-06T12:48:01;21.30;27.00
30148;DHT22;16960;49.404;8.248;2023-04-06T12:50:28;21.30;27.10
30148;DHT22;16960;49.404;8.248;2023-04-06T12:52:55;21.30;27.20
30148;DHT22;16960;49.404;8.248;2023-04-06T12:55:22;21.30;27.30
30148;DHT22;16960;49.404;8.248;2023-04-06T12:57:49;21.30;27.40
30148;DHT22;16960;49.404;8.248;2023-04-06T13:00:19;21.30;27.40
30148;DHT22;16960;49.404;8.248;2023-04-06T13:02:46;21.30;27.60
30148;DHT22;16960;49.404;8.248;2023-04-06T13:05:14;21.30;27.50
30148;DHT22;16960;49.404;8.248;2023-04-06T13:07:44;21.30;27.60
30148;DHT22;16960;49.404;8.248;2023-04-06T13:10:12;21.30;27.70
30148;DHT22;16960;49.404;8.248;2023-04-06T13:12:39;21.30;27.80
30148;DHT22;16960;49.404;8.248;2023-04-06T13:15:07;21.30;27.90
30148;DHT22;16960;49.404;8.248;2023-04-06T13:17:35;21.20;27.90
30148;DHT22;16960;49.404;8.248;2023-04-06T13:20:03;21.30;28.00
30148;DHT22;16960;49.404;8.248;2023-04-06T13:22:31;21.30;28.00
30148;DHT22;16960;49.404;8.248;2023-04-06T13:24:58;21.20;28.00
30148;DHT22;16960;49.404;8.248;2023-04-06T13:27:25;21.30;28.10
30148;DHT22;16960;49.404;8.248;2023-04-06T13:29:53;21.20;28.10
30148;DHT22;16960;49.404;8.248;2023-04-06T13:32:20;21.30;28.20
30148;DHT22;16960;49.404;8.248;2023-04-06T13:34:49;21.20;28.80
30148;DHT22;16960;49.404;8.248;2023-04-06T13:37:18;21.20;28.30
30148;DHT22;16960;49.404;8.248;2023-04-06T13:39:45;21.20;28.30
30148;DHT22;16960;49.404;8.248;2023-04-06T13:42:12;21.30;28.50
30148;DHT22;16960;49.404;8.248;2023-04-06T13:44:39;21.20;28.40
30148;DHT22;16960;49.404;8.248;2023-04-06T13:47:06;21.20;28.50
30148;DHT22;16960;49.404;8.248;2023-04-06T13:49:34;21.20;28.50
30148;DHT22;16960;49.404;8.248;2023-04-06T13:52:03;21.20;28.60
30148;DHT22;16960;49.404;8.248;2023-04-06T13:54:30;21.20;28.60
30148;DHT22;16960;49.404;8.248;2023-04-06T13:56:57;21.20;28.60
30148;DHT22;16960;49.404;8.248;2023-04-06T13:59:24;21.20;28.70
30148;DHT22;16960;49.404;8.248;2023-04-06T14:01:51;21.20;28.70
30148;DHT22;16960;49.404;8.248;2023-04-06T14:04:17;21.20;28.70
30148;DHT22;16960;49.404;8.248;2023-04-06T14:06:45;21.20;28.80
30148;DHT22;16960;49.404;8.248;2023-04-06T14:09:13;21.20;28.80
30148;DHT22;16960;49.404;8.248;2023-04-06T14:11:40;21.20;28.80
30148;DHT22;16960;49.404;8.248;2023-04-06T14:14:07;21.20;28.90
30148;DHT22;16960;49.404;8.248;2023-04-06T14:16:34;21.20;28.90
30148;DHT22;16960;49.404;8.248;2023-04-06T14:19:01;21.20;28.90
30148;DHT22;16960;49.404;8.248;2023-04-06T14:21:28;21.20;29.00
30148;DHT22;16960;49.404;8.248;2023-04-06T14:23:56;21.20;29.00
30148;DHT22;16960;49.404;8.248;2023-04-06T14:26:25;21.20;29.00
30148;DHT22;16960;49.404;8.248;2023-04-06T14:28:52;21.20;29.10
30148;DHT22;16960;49.404;8.248;2023-04-06T14:31:20;21.20;29.10
30148;DHT22;16960;49.404;8.248;2023-04-06T14:33:47;21.20;29.10
30148;DHT22;16960;49.404;8.248;2023-04-06T14:36:13;21.20;29.10
30148;DHT22;16960;49.404;8.248;2023-04-06T14:38:41;21.20;29.20
30148;DHT22;16960;49.404;8.248;2023-04-06T14:41:15;21.20;29.20
30148;DHT22;16960;49.404;8.248;2023-04-06T14:43:43;21.20;29.40
30148;DHT22;16960;49.404;8.248;2023-04-06T14:46:10;21.20;30.00
30148;DHT22;16960;49.404;8.248;2023-04-06T14:48:37;21.20;29.80
30148;DHT22;16960;49.404;8.248;2023-04-06T14:51:04;21.20;29.70
30148;DHT22;16960;49.404;8.248;2023-04-06T14:53:31;21.20;30.20
30148;DHT22;16960;49.404;8.248;2023-04-06T14:55:58;21.20;29.60
30148;DHT22;16960;49.404;8.248;2023-04-06T14:58:25;21.10;29.90
30148;DHT22;16960;49.404;8.248;2023-04-06T15:00:57;21.10;30.40
30148;DHT22;16960;49.404;8.248;2023-04-06T15:03:24;21.10;30.40
30148;DHT22;16960;49.404;8.248;2023-04-06T15:05:51;21.10;30.20
30148;DHT22;16960;49.404;8.248;2023-04-06T15:08:18;21.10;30.10
30148;DHT22;16960;49.404;8.248;2023-04-06T15:10:47;21.10;30.00
30148;DHT22;16960;49.404;8.248;2023-04-06T15:13:14;21.10;30.00
30148;DHT22;16960;49.404;8.248;2023-04-06T15:15:41;21.10;30.10
30148;DHT22;16960;49.404;8.248;2023-04-06T15:18:10;21.10;30.00
30148;DHT22;16960;49.404;8.248;2023-04-06T15:20:37;21.10;30.00
30148;DHT22;16960;49.404;8.248;2023-04-06T15:23:04;21.10;30.10
30148;DHT22;16960;49.404;8.248;2023-04-06T15:25:31;21.10;30.00
30148;DHT22;16960;49.404;8.248;2023-04-06T15:27:58;21.10;30.00
30148;DHT22;16960;49.404;8.248;2023-04-06T15:30:25;21.10;29.80
30148;DHT22;16960;49.404;8.248;2023-04-06T15:32:55;21.10;29.80